createdAt,value
2023-04-20T00:00:58.153Z,31.83
2023-04-20T00:02:02.017Z,31.45
2023-04-20T00:03:08.302Z,30.95
2023-04-20T00:04:12.106Z,32.13
2023-04-20T00:05:15.803Z,30.55
2023-04-20T00:06:19.684Z,32.25
2023-04-20T00:07:23.382Z,31.60
2023-04-20T00:08:27.192Z,33.10
2023-04-20T00:09:30.858Z,31.63
2023-04-20T00:10:34.995Z,31.40
2023-04-20T00:11:38.740Z,31.17
2023-04-20T00:12:43.696Z,31.23
2023-04-20T00:13:47.274Z,32.92
2023-04-20T00:14:50.994Z,33.08
2023-04-20T00:15:54.660Z,31.98
2023-04-20T00:16:58.433Z,31.83
2023-04-20T00:18:02.381Z,31.95
2023-04-20T00:19:08.202Z,32.95
2023-04-20T00:20:13.024Z,30.30
2023-04-20T00:21:16.732Z,30.45
2023-04-20T00:22:20.525Z,32.90
2023-04-20T00:23:24.267Z,31.98
2023-04-20T00:24:27.970Z,31.95
2023-04-20T00:25:31.702Z,31.95
2023-04-20T00:26:35.388Z,31.65
2023-04-20T00:27:39.075Z,34.30
2023-04-20T00:28:42.851Z,32.72
2023-04-20T00:29:46.603Z,32.95
2023-04-20T00:30:50.475Z,32.85
2023-04-20T00:31:54.196Z,31.00
2023-04-20T00:32:57.939Z,31.07
2023-04-20T00:34:01.643Z,31.15
2023-04-20T00:35:07.729Z,31.88
2023-04-20T00:36:11.510Z,31.30
2023-04-20T00:37:15.278Z,31.10
2023-04-20T00:38:18.984Z,31.50
2023-04-20T00:39:22.739Z,31.27
2023-04-20T00:40:26.482Z,32.70
2023-04-20T00:41:30.143Z,32.38
2023-04-20T00:42:33.864Z,31.75
2023-04-20T00:43:38.113Z,31.87
2023-04-20T00:44:41.845Z,32.63
2023-04-20T00:45:46.710Z,31.55
2023-04-20T00:46:50.495Z,33.50
2023-04-20T00:47:54.267Z,32.00
2023-04-20T00:48:58.173Z,34.45
2023-04-20T00:50:02.290Z,32.17
2023-04-20T00:51:07.816Z,32.42
2023-04-20T00:52:11.593Z,32.08
2023-04-20T00:53:15.628Z,30.23
2023-04-20T00:54:19.316Z,31.80
2023-04-20T00:55:24.464Z,31.85
2023-04-20T00:56:28.216Z,32.72
2023-04-20T00:57:33.210Z,32.05
2023-04-20T00:58:37.424Z,32.00
2023-04-20T00:59:41.730Z,30.75
2023-04-20T01:00:45.348Z,32.13
2023-04-20T01:01:49.086Z,31.42
2023-04-20T01:02:52.964Z,31.75
2023-04-20T01:03:56.960Z,30.70
2023-04-20T01:05:00.776Z,32.23
2023-04-20T01:06:06.520Z,32.88
2023-04-20T01:07:10.181Z,31.65
2023-04-20T01:08:13.864Z,31.15
2023-04-20T01:09:17.760Z,30.55
2023-04-20T01:10:21.569Z,30.83
2023-04-20T01:11:25.366Z,31.35
2023-04-20T01:12:29.169Z,33.60
2023-04-20T01:13:32.817Z,32.38
2023-04-20T01:14:36.513Z,31.65
2023-04-20T01:15:40.176Z,32.27
2023-04-20T01:16:43.946Z,30.35
2023-04-20T01:17:47.667Z,31.00
2023-04-20T01:18:51.949Z,30.88
2023-04-20T01:19:55.622Z,31.70
2023-04-20T01:20:59.322Z,30.90
2023-04-20T01:22:04.731Z,32.22
2023-04-20T01:23:10.164Z,31.08
2023-04-20T01:24:13.888Z,30.17
2023-04-20T01:25:18.361Z,32.03
2023-04-20T01:26:23.803Z,31.70
2023-04-20T01:27:27.578Z,32.78
2023-04-20T01:28:31.332Z,31.50
2023-04-20T01:29:35.508Z,31.98
2023-04-20T01:30:39.495Z,30.20
2023-04-20T01:31:43.221Z,31.98
2023-04-20T01:32:46.992Z,31.65
2023-04-20T01:33:50.708Z,32.42
2023-04-20T01:34:54.384Z,31.35
2023-04-20T01:35:58.096Z,31.70
2023-04-20T01:37:02.022Z,31.87
2023-04-20T01:38:05.842Z,30.98
2023-04-20T01:39:11.770Z,30.05
2023-04-20T01:40:15.999Z,32.00
2023-04-20T01:41:19.729Z,30.98
2023-04-20T01:42:26.208Z,30.67
2023-04-20T01:43:30.000Z,31.33
2023-04-20T01:44:33.715Z,34.78
2023-04-20T01:45:37.507Z,33.13
2023-04-20T01:46:41.386Z,31.73
2023-04-20T01:47:45.251Z,30.70
2023-04-20T01:48:48.953Z,32.70
2023-04-20T01:49:52.582Z,31.73
2023-04-20T01:50:56.271Z,33.17
2023-04-20T01:51:59.950Z,31.63
2023-04-20T01:53:03.649Z,30.58
2023-04-20T01:54:07.396Z,30.88
2023-04-20T01:55:12.768Z,30.75
2023-04-20T01:56:16.412Z,30.92
2023-04-20T01:57:20.130Z,32.55
2023-04-20T01:58:23.870Z,31.47
2023-04-20T01:59:27.607Z,31.63
2023-04-20T02:00:31.257Z,32.65
2023-04-20T02:01:34.996Z,31.55
2023-04-20T02:02:38.862Z,33.70
2023-04-20T02:03:42.821Z,31.38
2023-04-20T02:04:46.606Z,33.35
2023-04-20T02:05:50.327Z,32.65
2023-04-20T02:06:53.972Z,33.08
2023-04-20T02:07:57.628Z,32.78
2023-04-20T02:09:01.281Z,30.50
2023-04-20T02:10:05.642Z,31.05
2023-04-20T02:11:11.143Z,32.70
2023-04-20T02:12:14.866Z,33.47
2023-04-20T02:13:18.707Z,32.97
2023-04-20T02:14:22.312Z,32.70
2023-04-20T02:15:26.173Z,34.55
2023-04-20T02:16:29.936Z,34.35
2023-04-20T02:17:33.677Z,31.77
2023-04-20T02:18:37.473Z,31.02
2023-04-20T02:19:41.203Z,33.10
2023-04-20T02:20:45.195Z,31.02
2023-04-20T02:21:48.909Z,32.78
2023-04-20T02:22:52.704Z,33.33
2023-04-20T02:23:56.462Z,33.90
2023-04-20T02:25:00.179Z,32.60
2023-04-20T02:26:04.066Z,34.20
2023-04-20T02:27:09.525Z,33.35
2023-04-20T02:28:13.329Z,31.73
2023-04-20T02:29:17.798Z,32.92
2023-04-20T02:30:21.753Z,33.93
2023-04-20T02:31:25.437Z,33.58
2023-04-20T02:32:29.174Z,33.35
2023-04-20T02:33:32.949Z,33.33
2023-04-20T02:34:36.624Z,31.48
2023-04-20T02:35:40.302Z,33.60
2023-04-20T02:36:44.034Z,34.25
2023-04-20T02:37:48.295Z,32.38
2023-04-20T02:38:51.902Z,31.77
2023-04-20T02:39:55.894Z,31.90
2023-04-20T02:40:59.521Z,33.77
2023-04-20T02:42:03.171Z,35.80
2023-04-20T02:43:08.377Z,33.30
2023-04-20T02:44:12.079Z,32.47
2023-04-20T02:45:15.761Z,32.13
2023-04-20T02:46:19.693Z,32.08
2023-04-20T02:47:23.442Z,33.75
2023-04-20T02:48:27.180Z,34.80
2023-04-20T02:49:30.916Z,31.98
2023-04-20T02:50:34.669Z,33.28
2023-04-20T02:51:38.372Z,33.03
2023-04-20T02:52:42.035Z,31.48
2023-04-20T02:53:45.619Z,36.10
2023-04-20T02:54:49.243Z,33.00
2023-04-20T02:55:52.950Z,32.92
2023-04-20T02:56:57.952Z,31.95
2023-04-20T02:58:01.893Z,31.88
2023-04-20T02:59:07.277Z,34.13
2023-04-20T03:00:11.775Z,34.95
2023-04-20T03:01:15.572Z,34.13
2023-04-20T03:02:19.416Z,35.27
2023-04-20T03:03:23.452Z,32.17
2023-04-20T03:04:27.361Z,31.30
2023-04-20T03:05:31.187Z,33.10
2023-04-20T03:06:34.858Z,35.42
2023-04-20T03:07:38.607Z,31.58
2023-04-20T03:08:42.293Z,32.55
2023-04-20T03:09:46.067Z,32.65
2023-04-20T03:10:49.730Z,32.17
2023-04-20T03:11:53.402Z,32.42
2023-04-20T03:12:57.029Z,32.57
2023-04-20T03:14:00.661Z,33.00
2023-04-20T03:15:07.333Z,33.22
2023-04-20T03:16:11.041Z,31.88
2023-04-20T03:17:14.780Z,32.97
2023-04-20T03:18:18.423Z,33.90
2023-04-20T03:19:22.053Z,33.25
2023-04-20T03:20:25.749Z,31.85
2023-04-20T03:21:29.356Z,31.23
2023-04-20T03:22:32.998Z,31.88
2023-04-20T03:23:36.674Z,31.57
2023-04-20T03:24:40.347Z,31.90
2023-04-20T03:25:44.021Z,31.83
2023-04-20T03:26:47.662Z,32.70
2023-04-20T03:27:51.402Z,33.92
2023-04-20T03:28:55.254Z,31.98
2023-04-20T03:29:58.904Z,33.25
2023-04-20T03:31:04.414Z,32.58
2023-04-20T03:32:08.260Z,31.35
2023-04-20T03:33:12.013Z,33.03
2023-04-20T03:34:15.760Z,31.97
2023-04-20T03:35:19.493Z,32.38
2023-04-20T03:36:26.179Z,31.85
2023-04-20T03:37:29.910Z,30.60
2023-04-20T03:38:33.546Z,31.73
2023-04-20T03:39:37.294Z,30.15
2023-04-20T03:40:41.100Z,33.97
2023-04-20T03:41:44.843Z,32.55
2023-04-20T03:42:48.415Z,33.30
2023-04-20T03:43:51.990Z,31.60
2023-04-20T03:44:55.689Z,32.40
2023-04-20T03:45:59.446Z,33.42
2023-04-20T03:47:04.831Z,32.40
2023-04-20T03:48:08.433Z,36.55
2023-04-20T03:49:12.620Z,32.42
2023-04-20T03:50:16.412Z,33.03
2023-04-20T03:51:20.113Z,34.15
2023-04-20T03:52:23.793Z,34.17
2023-04-20T03:53:27.510Z,36.53
2023-04-20T03:54:31.156Z,34.17
2023-04-20T03:55:34.962Z,31.13
2023-04-20T03:56:38.577Z,32.22
2023-04-20T03:57:42.307Z,31.15
2023-04-20T03:58:46.016Z,34.38
2023-04-20T03:59:49.674Z,34.00
2023-04-20T04:00:53.477Z,33.63
2023-04-20T04:01:57.250Z,32.13
2023-04-20T04:03:02.807Z,34.03
2023-04-20T04:04:06.927Z,32.92
2023-04-20T04:05:11.027Z,34.08
2023-04-20T04:06:14.706Z,33.27
2023-04-20T04:07:18.437Z,32.47
2023-04-20T04:08:22.057Z,35.47
2023-04-20T04:09:25.787Z,34.20
2023-04-20T04:10:29.571Z,33.83
2023-04-20T04:11:33.301Z,34.35
2023-04-20T04:12:36.982Z,34.78
2023-04-20T04:13:40.720Z,33.63
2023-04-20T04:14:44.368Z,33.42
2023-04-20T04:15:48.051Z,34.70
2023-04-20T04:16:51.822Z,32.50
2023-04-20T04:17:55.669Z,32.05
2023-04-20T04:19:01.052Z,34.53
2023-04-20T04:20:05.064Z,35.35
2023-04-20T04:21:08.703Z,32.60
2023-04-20T04:22:12.458Z,34.72
2023-04-20T04:23:16.091Z,34.40
2023-04-20T04:24:19.738Z,34.53
2023-04-20T04:25:23.447Z,33.50
2023-04-20T04:26:27.321Z,34.30
2023-04-20T04:27:31.046Z,34.60
2023-04-20T04:28:34.692Z,33.72
2023-04-20T04:29:38.410Z,33.28
2023-04-20T04:30:42.112Z,33.10
2023-04-20T04:31:45.836Z,33.63
2023-04-20T04:32:49.559Z,34.28
2023-04-20T04:33:53.340Z,34.58
2023-04-20T04:34:58.794Z,33.33
2023-04-20T04:36:02.630Z,32.05
2023-04-20T04:37:06.411Z,35.63
2023-04-20T04:38:10.111Z,35.57
2023-04-20T04:39:13.792Z,34.80
2023-04-20T04:40:17.727Z,34.00
2023-04-20T04:41:21.396Z,36.72
2023-04-20T04:42:25.183Z,37.08
2023-04-20T04:43:28.969Z,37.35
2023-04-20T04:44:32.834Z,34.50
2023-04-20T04:45:38.955Z,34.13
2023-04-20T04:46:42.695Z,35.13
2023-04-20T04:47:46.445Z,34.88
2023-04-20T04:48:50.108Z,35.47
2023-04-20T04:49:53.806Z,33.35
2023-04-20T04:50:59.071Z,33.92
2023-04-20T04:52:02.871Z,36.00
2023-04-20T04:53:06.549Z,34.45
2023-04-20T04:54:10.204Z,33.10
2023-04-20T04:55:15.749Z,34.65
2023-04-20T04:56:20.169Z,34.35
2023-04-20T04:57:23.860Z,33.15
2023-04-20T04:58:27.604Z,34.53
2023-04-20T04:59:31.225Z,32.83
2023-04-20T05:00:34.875Z,33.03
2023-04-20T05:01:38.576Z,34.38
2023-04-20T05:02:42.398Z,33.08
2023-04-20T05:03:46.386Z,32.30
2023-04-20T05:04:50.181Z,30.73
2023-04-20T05:05:53.956Z,32.30
2023-04-20T05:06:59.341Z,32.70
2023-04-20T05:08:03.007Z,32.00
2023-04-20T05:09:06.686Z,32.50
2023-04-20T05:10:10.553Z,30.70
2023-04-20T05:11:14.316Z,31.27
2023-04-20T05:12:18.053Z,32.25
2023-04-20T05:13:21.726Z,33.08
2023-04-20T05:14:25.374Z,33.22
2023-04-20T05:15:29.106Z,32.70
2023-04-20T05:16:32.841Z,32.90
2023-04-20T05:17:36.644Z,31.88
2023-04-20T05:18:40.398Z,32.70
2023-04-20T05:19:44.119Z,31.55
2023-04-20T05:20:47.779Z,31.87
2023-04-20T05:21:51.483Z,32.92
2023-04-20T05:22:56.789Z,32.20
2023-04-20T05:24:00.487Z,33.20
2023-04-20T05:25:04.271Z,35.55
2023-04-20T05:26:07.975Z,33.22
2023-04-20T05:27:11.685Z,33.22
2023-04-20T05:28:15.364Z,33.90
2023-04-20T05:29:19.269Z,33.42
2023-04-20T05:30:23.029Z,32.45
2023-04-20T05:31:26.803Z,31.87
2023-04-20T05:32:30.689Z,32.40
2023-04-20T05:33:34.402Z,31.88
2023-04-20T05:34:38.109Z,31.27
2023-04-20T05:35:41.856Z,32.35
2023-04-20T05:36:47.473Z,32.15
2023-04-20T05:37:51.181Z,32.30
2023-04-20T05:38:56.589Z,33.08
2023-04-20T05:40:00.287Z,31.63
2023-04-20T05:41:04.028Z,32.85
2023-04-20T05:42:07.689Z,35.07
2023-04-20T05:43:11.429Z,32.30
2023-04-20T05:44:15.221Z,33.38
2023-04-20T05:45:19.067Z,32.20
2023-04-20T05:46:22.890Z,35.38
2023-04-20T05:47:26.630Z,33.13
2023-04-20T05:48:30.426Z,33.63
2023-04-20T05:49:34.261Z,34.00
2023-04-20T05:50:37.952Z,30.83
2023-04-20T05:51:41.606Z,30.35
2023-04-20T05:52:45.212Z,34.53
2023-04-20T05:53:48.977Z,31.92
2023-04-20T05:54:54.355Z,34.05
2023-04-20T05:55:58.006Z,33.75
2023-04-20T05:57:01.644Z,31.77
2023-04-20T05:58:05.316Z,30.98
2023-04-20T05:59:09.512Z,32.67
2023-04-20T06:00:14.682Z,30.58
2023-04-20T06:01:18.427Z,31.67
2023-04-20T06:02:22.281Z,33.85
2023-04-20T06:03:26.484Z,31.70
2023-04-20T06:04:30.797Z,33.72
2023-04-20T06:05:35.107Z,33.17
2023-04-20T06:06:39.286Z,33.03
2023-04-20T06:07:43.135Z,32.60
2023-04-20T06:08:46.998Z,30.83
2023-04-20T06:09:50.664Z,32.00
2023-04-20T06:10:57.365Z,30.55
2023-04-20T06:12:01.106Z,32.78
2023-04-20T06:13:04.853Z,31.77
2023-04-20T06:14:08.578Z,32.93
2023-04-20T06:15:12.643Z,31.88
2023-04-20T06:16:16.354Z,30.52
2023-04-20T06:17:20.135Z,32.17
2023-04-20T06:18:23.913Z,33.58
2023-04-20T06:19:27.520Z,31.80
2023-04-20T06:20:31.284Z,31.73
2023-04-20T06:21:35.396Z,31.15
2023-04-20T06:22:43.523Z,32.05
2023-04-20T06:23:47.237Z,29.48
2023-04-20T06:24:50.975Z,30.00
2023-04-20T06:25:56.264Z,29.65
2023-04-20T06:27:00.016Z,30.40
2023-04-20T06:28:03.607Z,30.10
2023-04-20T06:29:07.394Z,30.92
2023-04-20T06:30:12.028Z,29.55
2023-04-20T06:31:15.706Z,31.85
2023-04-20T06:32:19.560Z,31.00
2023-04-20T06:33:23.311Z,31.17
2023-04-20T06:34:27.090Z,29.67
2023-04-20T06:35:30.863Z,30.57
2023-04-20T06:36:34.467Z,29.20
2023-04-20T06:37:38.429Z,29.75
2023-04-20T06:38:42.112Z,29.88
2023-04-20T06:39:45.869Z,29.42
2023-04-20T06:40:49.509Z,29.70
2023-04-20T06:41:54.831Z,29.73
2023-04-20T06:42:58.638Z,28.45
2023-04-20T06:44:02.299Z,30.75
2023-04-20T06:45:06.927Z,32.08
2023-04-20T06:46:10.698Z,31.30
2023-04-20T06:47:14.350Z,30.55
2023-04-20T06:48:31.359Z,31.55
2023-04-20T06:49:36.767Z,28.95
2023-04-20T06:50:40.416Z,30.40
2023-04-20T06:51:44.071Z,30.05
2023-04-20T06:52:47.733Z,31.10
2023-04-20T06:53:51.541Z,31.67
2023-04-20T06:54:55.345Z,31.25
2023-04-20T06:55:59.202Z,31.05
2023-04-20T06:57:04.492Z,29.37
2023-04-20T06:58:08.181Z,30.63
2023-04-20T06:59:11.886Z,29.73
2023-04-20T07:00:16.594Z,31.65
2023-04-20T07:01:20.757Z,32.40
2023-04-20T07:02:24.599Z,33.17
2023-04-20T07:03:28.516Z,31.90
2023-04-20T07:04:32.385Z,34.08
2023-04-20T07:05:37.613Z,34.20
2023-04-20T07:06:41.275Z,33.45
2023-04-20T07:07:45.249Z,33.40
2023-04-20T07:08:49.064Z,32.00
2023-04-20T07:09:52.817Z,32.85
2023-04-20T07:10:56.495Z,34.58
2023-04-20T07:12:00.272Z,32.20
2023-04-20T07:13:05.585Z,33.58
2023-04-20T07:14:09.281Z,31.48
2023-04-20T07:15:13.552Z,32.42
2023-04-20T07:16:17.691Z,34.13
2023-04-20T07:17:23.736Z,32.45
2023-04-20T07:18:27.496Z,33.97
2023-04-20T07:19:31.186Z,32.22
2023-04-20T07:20:34.998Z,32.00
2023-04-20T07:21:38.889Z,32.13
2023-04-20T07:22:42.585Z,31.83
2023-04-20T07:23:46.286Z,30.40
2023-04-20T07:24:50.006Z,34.63
2023-04-20T07:25:54.170Z,34.47
2023-04-20T07:26:57.825Z,32.45
2023-04-20T07:28:01.508Z,32.92
2023-04-20T07:29:07.013Z,33.77
2023-04-20T07:30:11.849Z,35.78
2023-04-20T07:31:15.573Z,33.67
2023-04-20T07:32:19.434Z,31.90
2023-04-20T07:33:23.268Z,33.13
2023-04-20T07:34:27.090Z,33.20
2023-04-20T07:35:30.883Z,31.02
2023-04-20T07:36:34.603Z,30.13
2023-04-20T07:37:38.282Z,31.02
2023-04-20T07:38:42.028Z,33.80
2023-04-20T07:39:46.044Z,32.33
2023-04-20T07:40:49.851Z,33.30
2023-04-20T07:41:53.553Z,34.35
2023-04-20T07:42:57.218Z,34.25
2023-04-20T07:44:00.906Z,33.90
2023-04-20T07:45:07.262Z,34.58
2023-04-20T07:46:10.975Z,33.22
2023-04-20T07:47:14.828Z,32.88
2023-04-20T07:48:18.493Z,35.45
2023-04-20T07:49:22.168Z,32.40
2023-04-20T07:50:26.070Z,33.97
2023-04-20T07:51:29.778Z,32.42
2023-04-20T07:52:33.945Z,33.83
2023-04-20T07:53:37.749Z,33.80
2023-04-20T07:54:41.462Z,33.45
2023-04-20T07:55:45.154Z,32.78
2023-04-20T07:56:48.843Z,32.55
2023-04-20T07:57:52.615Z,33.80
2023-04-20T07:58:56.361Z,31.65
2023-04-20T08:00:00.039Z,32.95
2023-04-20T08:01:05.578Z,31.50
2023-04-20T08:02:09.733Z,31.15
2023-04-20T08:03:13.679Z,32.75
2023-04-20T08:04:17.700Z,30.20
2023-04-20T08:05:21.701Z,31.88
2023-04-20T08:06:25.480Z,32.47
2023-04-20T08:07:29.182Z,32.88
2023-04-20T08:08:32.969Z,34.45
2023-04-20T08:09:36.782Z,35.63
2023-04-20T08:10:40.492Z,31.55
2023-04-20T08:11:44.317Z,34.57
2023-04-20T08:12:49.755Z,32.75
2023-04-20T08:13:55.773Z,32.63
2023-04-20T08:15:00.891Z,34.00
2023-04-20T08:16:07.447Z,33.05
2023-04-20T08:17:11.484Z,34.22
2023-04-20T08:18:15.143Z,33.28
2023-04-20T08:19:18.861Z,31.80
2023-04-20T08:20:22.605Z,31.42
2023-04-20T08:21:26.341Z,30.60
2023-04-20T08:22:30.570Z,31.70
2023-04-20T08:23:34.349Z,32.15
2023-04-20T08:24:38.226Z,31.17
2023-04-20T08:25:42.280Z,31.85
2023-04-20T08:26:45.949Z,32.10
2023-04-20T08:27:49.661Z,31.90
2023-04-20T08:28:53.393Z,31.38
2023-04-20T08:29:57.306Z,31.92
2023-04-20T08:31:00.989Z,32.97
2023-04-20T08:32:07.209Z,31.45
2023-04-20T08:33:10.925Z,32.90
2023-04-20T08:34:14.621Z,32.05
2023-04-20T08:35:18.609Z,32.65
2023-04-20T08:36:22.495Z,32.65
2023-04-20T08:37:26.226Z,34.75
2023-04-20T08:38:34.138Z,31.85
2023-04-20T08:39:37.986Z,31.48
2023-04-20T08:40:41.731Z,33.00
2023-04-20T08:41:45.352Z,33.17
2023-04-20T08:42:48.992Z,34.90
2023-04-20T08:43:53.072Z,32.50
2023-04-20T08:44:56.813Z,32.92
2023-04-20T08:46:01.527Z,31.83
2023-04-20T08:47:06.965Z,33.92
2023-04-20T08:48:12.220Z,34.05
2023-04-20T08:49:17.293Z,32.13
2023-04-20T08:50:21.174Z,33.45
2023-04-20T08:51:24.984Z,34.53
2023-04-20T08:52:28.734Z,34.20
2023-04-20T08:53:32.573Z,30.85
2023-04-20T08:54:37.233Z,32.60
2023-04-20T08:55:43.161Z,30.30
2023-04-20T08:56:48.110Z,32.28
2023-04-20T08:57:51.884Z,32.22
2023-04-20T08:58:58.784Z,34.13
2023-04-20T09:00:05.935Z,32.53
2023-04-20T09:01:11.152Z,33.80
2023-04-20T09:02:17.263Z,30.45
2023-04-20T09:03:33.548Z,30.08
2023-04-20T09:04:37.517Z,32.65
2023-04-20T09:05:41.281Z,31.27
2023-04-20T09:06:48.524Z,31.77
2023-04-20T09:07:53.203Z,30.65
2023-04-20T09:08:56.921Z,31.63
2023-04-20T09:10:01.873Z,29.35
2023-04-20T09:11:05.568Z,31.75
2023-04-20T09:12:09.352Z,30.10
2023-04-20T09:13:23.476Z,29.13
2023-04-20T09:14:27.333Z,30.50
2023-04-20T09:15:32.445Z,30.45
2023-04-20T09:16:36.376Z,29.77
2023-04-20T09:17:41.892Z,30.88
2023-04-20T09:18:53.443Z,30.75
2023-04-20T09:19:57.235Z,29.33
2023-04-20T09:21:09.472Z,30.10
2023-04-20T09:22:13.605Z,27.92
2023-04-20T09:23:18.673Z,27.60
2023-04-20T09:24:23.786Z,28.50
2023-04-20T09:25:28.892Z,29.20
2023-04-20T09:26:33.988Z,30.23
2023-04-20T09:27:37.639Z,28.67
2023-04-20T09:28:41.321Z,29.67
2023-04-20T09:29:45.394Z,30.13
2023-04-20T09:30:49.976Z,29.27
2023-04-20T09:31:53.758Z,28.77
2023-04-20T09:33:05.919Z,28.83
2023-04-20T09:34:09.574Z,28.35
2023-04-20T09:35:13.351Z,28.98
2023-04-20T09:36:17.451Z,28.67
2023-04-20T09:37:21.289Z,29.05
2023-04-20T09:38:27.729Z,29.13
2023-04-20T09:39:34.051Z,28.98
2023-04-20T09:40:38.257Z,28.98
2023-04-20T09:41:43.526Z,28.13
2023-04-20T09:42:49.281Z,28.75
2023-04-20T09:43:53.055Z,26.77
2023-04-20T09:44:58.248Z,27.23
2023-04-20T09:46:03.468Z,29.02
2023-04-20T09:47:07.864Z,30.35
2023-04-20T09:48:13.659Z,27.77
2023-04-20T09:49:17.334Z,29.80
2023-04-20T09:50:28.986Z,30.25
2023-04-20T09:51:34.701Z,29.23
2023-04-20T09:52:38.814Z,27.83
2023-04-20T09:53:42.954Z,29.77
2023-04-20T09:54:47.045Z,28.27
2023-04-20T09:55:52.337Z,26.45
2023-04-20T09:56:56.348Z,27.10
2023-04-20T09:58:02.787Z,27.60
2023-04-20T09:59:06.653Z,29.58
2023-04-20T10:00:11.656Z,26.97
2023-04-20T10:01:15.746Z,27.17
2023-04-20T10:02:19.492Z,27.02
2023-04-20T10:03:25.133Z,28.15
2023-04-20T10:04:29.004Z,27.77
2023-04-20T10:05:36.277Z,28.10
2023-04-20T10:06:40.075Z,28.73
2023-04-20T10:07:44.796Z,28.17
2023-04-20T10:08:48.564Z,28.15
2023-04-20T10:10:04.226Z,27.23
2023-04-20T10:11:08.145Z,26.20
2023-04-20T10:12:11.884Z,25.50
2023-04-20T10:13:15.905Z,25.83
2023-04-20T10:14:21.137Z,26.02
2023-04-20T10:15:25.533Z,25.42
2023-04-20T10:16:29.437Z,26.05
2023-04-20T10:17:33.965Z,26.35
2023-04-20T10:18:39.472Z,26.38
2023-04-20T10:19:44.258Z,27.35
2023-04-20T10:20:48.320Z,26.75
2023-04-20T10:21:52.319Z,26.67
2023-04-20T10:23:09.409Z,26.92
2023-04-20T10:24:13.117Z,25.17
2023-04-20T10:25:18.614Z,26.75
2023-04-20T10:26:23.669Z,26.40
2023-04-20T10:27:27.404Z,28.45
2023-04-20T10:28:40.315Z,26.48
2023-04-20T10:29:44.076Z,25.83
2023-04-20T10:30:52.817Z,27.48
2023-04-20T10:31:57.113Z,26.48
2023-04-20T10:33:08.535Z,26.10
2023-04-20T10:34:13.889Z,25.10
2023-04-20T10:35:17.643Z,26.85
2023-04-20T10:36:29.899Z,26.95
2023-04-20T10:37:33.996Z,26.15
2023-04-20T10:38:37.783Z,25.38
2023-04-20T10:39:46.494Z,26.20
2023-04-20T10:40:50.188Z,24.83
2023-04-20T10:41:55.122Z,27.20
2023-04-20T10:42:58.874Z,26.00
2023-04-20T10:44:09.085Z,24.77
2023-04-20T10:45:13.525Z,25.33
2023-04-20T10:46:18.577Z,26.08
2023-04-20T10:47:29.492Z,25.42
2023-04-20T10:48:33.298Z,24.85
2023-04-20T10:49:38.810Z,26.42
2023-04-20T10:50:42.745Z,26.70
2023-04-20T10:51:50.187Z,24.30
2023-04-20T10:52:53.908Z,23.58
2023-04-20T10:54:04.802Z,24.60
2023-04-20T10:55:19.749Z,24.17
2023-04-20T10:56:23.544Z,25.40
2023-04-20T10:57:27.260Z,26.45
2023-04-20T10:58:30.888Z,26.02
2023-04-20T10:59:35.220Z,24.85
2023-04-20T11:00:38.969Z,25.58
2023-04-20T11:01:43.450Z,25.58
2023-04-20T11:02:50.583Z,24.20
2023-04-20T11:03:54.454Z,26.10
2023-04-20T11:04:59.847Z,24.33
2023-04-20T11:06:04.108Z,26.20
2023-04-20T11:07:09.217Z,25.42
2023-04-20T11:08:12.962Z,24.50
2023-04-20T11:09:21.159Z,25.63
2023-04-20T11:10:37.603Z,24.90
2023-04-20T11:11:41.469Z,25.48
2023-04-20T11:12:45.095Z,24.20
2023-04-20T11:13:49.256Z,24.55
2023-04-20T11:14:54.165Z,24.92
2023-04-20T11:15:57.954Z,24.75
2023-04-20T11:17:02.437Z,24.90
2023-04-20T11:18:09.625Z,24.80
2023-04-20T11:19:13.373Z,24.85
2023-04-20T11:20:18.850Z,25.08
2023-04-20T11:21:23.403Z,24.98
2023-04-20T11:22:27.111Z,25.73
2023-04-20T11:23:38.666Z,24.05
2023-04-20T11:24:42.378Z,23.58
2023-04-20T11:25:52.042Z,24.35
2023-04-20T11:26:56.440Z,24.08
2023-04-20T11:28:07.374Z,23.03
2023-04-20T11:29:11.169Z,24.92
2023-04-20T11:30:15.101Z,26.27
2023-04-20T11:31:19.095Z,25.85
2023-04-20T11:32:23.200Z,27.02
2023-04-20T11:33:27.419Z,25.65
2023-04-20T11:34:31.464Z,24.25
2023-04-20T11:35:40.191Z,26.30
2023-04-20T11:36:44.504Z,26.50
2023-04-20T11:37:49.325Z,25.23
2023-04-20T11:38:53.112Z,25.27
2023-04-20T11:40:04.223Z,27.17
2023-04-20T11:41:08.050Z,28.00
2023-04-20T11:42:11.867Z,26.70
2023-04-20T11:43:15.799Z,26.33
2023-04-20T11:44:19.595Z,26.42
2023-04-20T11:45:23.271Z,25.77
2023-04-20T11:46:26.918Z,26.13
2023-04-20T11:47:30.766Z,26.45
2023-04-20T11:48:34.649Z,26.30
2023-04-20T11:49:38.369Z,27.83
2023-04-20T11:50:43.767Z,25.58
2023-04-20T11:51:47.840Z,27.40
2023-04-20T11:52:51.662Z,29.30
2023-04-20T11:53:55.407Z,28.98
2023-04-20T11:54:59.109Z,27.88
2023-04-20T11:56:02.801Z,26.65
2023-04-20T11:57:19.745Z,28.77
2023-04-20T11:58:23.555Z,30.42
2023-04-20T11:59:44.580Z,30.58
2023-04-20T12:00:48.216Z,30.53
2023-04-20T12:01:51.904Z,29.48
2023-04-20T12:02:55.704Z,28.15
2023-04-20T12:03:59.800Z,28.95
2023-04-20T12:05:03.849Z,28.17
2023-04-20T12:06:09.951Z,28.30
2023-04-20T12:07:13.828Z,28.73
2023-04-20T12:08:17.528Z,27.48
2023-04-20T12:09:21.171Z,28.00
2023-04-20T12:10:25.000Z,27.38
2023-04-20T12:11:33.100Z,28.13
2023-04-20T12:12:36.903Z,28.13
2023-04-20T12:13:40.655Z,28.95
2023-04-20T12:14:47.465Z,28.42
2023-04-20T12:15:51.190Z,25.35
2023-04-20T12:16:56.143Z,27.95
2023-04-20T12:18:03.732Z,29.30
2023-04-20T12:19:07.457Z,28.58
2023-04-20T12:20:11.636Z,29.33
2023-04-20T12:21:21.754Z,28.13
2023-04-20T12:22:25.475Z,27.70
2023-04-20T12:23:29.295Z,28.33
2023-04-20T12:24:33.039Z,26.48
2023-04-20T12:25:36.769Z,27.42
2023-04-20T12:26:40.481Z,28.92
2023-04-20T12:27:44.200Z,28.77
2023-04-20T12:28:47.875Z,31.35
2023-04-20T12:29:51.532Z,30.70
2023-04-20T12:30:55.366Z,29.58
2023-04-20T12:31:59.179Z,29.50
2023-04-20T12:33:03.143Z,29.10
2023-04-20T12:34:06.907Z,31.98
2023-04-20T12:35:10.850Z,30.13
2023-04-20T12:36:14.516Z,31.48
2023-04-20T12:37:19.895Z,30.23
2023-04-20T12:38:23.584Z,31.98
2023-04-20T12:39:27.453Z,31.25
2023-04-20T12:40:31.156Z,32.40
2023-04-20T12:41:34.847Z,30.70
2023-04-20T12:42:38.516Z,29.02
2023-04-20T12:43:42.319Z,32.27
2023-04-20T12:44:46.062Z,32.33
2023-04-20T12:45:49.712Z,32.50
2023-04-20T12:46:53.403Z,32.53
2023-04-20T12:47:58.488Z,34.10
2023-04-20T12:49:03.967Z,34.03
2023-04-20T12:50:08.700Z,33.03
2023-04-20T12:51:12.399Z,34.63
2023-04-20T12:52:16.144Z,33.92
2023-04-20T12:53:21.499Z,32.42
2023-04-20T12:54:25.311Z,34.33
2023-04-20T12:55:29.238Z,34.17
2023-04-20T12:56:32.886Z,33.25
2023-04-20T12:57:36.683Z,34.58
2023-04-20T12:58:40.394Z,34.38
2023-04-20T12:59:44.082Z,34.83
2023-04-20T13:00:50.443Z,33.40
2023-04-20T13:01:54.189Z,33.38
2023-04-20T13:02:58.098Z,34.53
2023-04-20T13:04:01.987Z,35.20
2023-04-20T13:05:06.029Z,32.23
2023-04-20T13:06:13.609Z,32.55
2023-04-20T13:07:18.084Z,31.73
2023-04-20T13:08:23.447Z,32.50
2023-04-20T13:09:27.162Z,32.60
2023-04-20T13:10:30.971Z,30.27
2023-04-20T13:11:34.687Z,36.08
2023-04-20T13:12:38.439Z,36.13
2023-04-20T13:13:42.123Z,34.63
2023-04-20T13:14:45.744Z,34.92
2023-04-20T13:15:49.476Z,34.67
2023-04-20T13:16:55.158Z,37.83
2023-04-20T13:17:59.569Z,37.60
2023-04-20T13:19:03.768Z,36.47
2023-04-20T13:20:08.628Z,37.03
2023-04-20T13:21:12.237Z,34.15
2023-04-20T13:22:18.661Z,37.80
2023-04-20T13:23:24.347Z,35.40
2023-04-20T13:24:28.079Z,35.10
2023-04-20T13:25:33.401Z,37.15
2023-04-20T13:26:37.264Z,33.63
2023-04-20T13:27:41.014Z,33.67
2023-04-20T13:28:44.895Z,34.28
2023-04-20T13:29:48.577Z,35.58
2023-04-20T13:30:52.285Z,35.97
2023-04-20T13:31:56.027Z,34.45
2023-04-20T13:32:59.866Z,33.40
2023-04-20T13:34:03.542Z,33.65
2023-04-20T13:35:08.361Z,34.58
2023-04-20T13:36:12.101Z,33.45
2023-04-20T13:37:15.829Z,33.87
2023-04-20T13:38:19.626Z,34.50
2023-04-20T13:39:25.494Z,32.67
2023-04-20T13:40:29.533Z,32.55
2023-04-20T13:41:33.271Z,32.80
2023-04-20T13:43:03.069Z,33.63
2023-04-20T13:44:07.455Z,33.25
2023-04-20T13:45:12.130Z,33.28
2023-04-20T13:46:15.912Z,34.65
2023-04-20T13:47:20.579Z,33.00
2023-04-20T13:48:24.421Z,36.07
2023-04-20T13:49:28.204Z,35.42
2023-04-20T13:50:31.941Z,34.03